Time;durP1;ratioP1;P1;durP2;ratioP2;P2;SDS_P1;SDS_P2;PMS_P1;PMS_P2;Temp;Humidity;BMP_temperature;BMP_pressure;BME280_temperature;BME280_humidity;BME280_pressure;Samples;Min_cycle;Max_cycle;Signal;HPM_P1;HPM_P2
2021/05/03 00:01:14;;;;;;;6.27;5.37;;;4.80;99.90;;;6.38;100.00;100424.50;5000695;28;54985;-60
2021/05/03 00:04:25;;;;;;;5.80;5.30;;;4.80;99.90;;;6.37;100.00;100429.97;4999823;28;54186;-59
2021/05/03 00:07:37;;;;;;;6.07;5.57;;;4.90;99.90;;;6.47;100.00;100431.72;4998666;28;51153;-59
2021/05/03 00:11:00;;;;;;;6.93;5.13;;;4.90;99.90;;;6.46;100.00;100437.16;4987729;28;53202;-59
2021/05/03 00:14:41;;;;;;;8.87;5.50;;;4.90;99.90;;;6.50;100.00;100443.91;5004454;28;48183;-58
2021/05/03 00:17:52;;;;;;;6.97;5.97;;;5.00;99.90;;;6.52;100.00;100446.44;5003108;28;54028;-58
2021/05/03 00:21:03;;;;;;;5.70;5.10;;;5.00;99.90;;;6.40;100.00;100450.97;5006324;28;44651;-57
2021/05/03 00:24:27;;;;;;;9.23;5.53;;;5.00;99.90;;;6.44;100.00;100455.03;5008966;28;46273;-60
2021/05/03 00:27:39;;;;;;;5.30;4.80;;;4.90;99.90;;;6.34;100.00;100454.13;5009361;28;46652;-57
2021/05/03 00:30:51;;;;;;;8.60;5.63;;;4.90;99.90;;;6.36;100.00;100460.16;4993276;28;41511;-59
2021/05/03 00:34:02;;;;;;;8.33;5.70;;;4.90;99.90;;;6.27;100.00;100455.63;5005997;28;47826;-62
2021/05/03 00:37:13;;;;;;;5.93;5.00;;;4.80;99.90;;;6.24;100.00;100462.03;5001247;28;54783;-58
2021/05/03 00:40:25;;;;;;;4.97;4.57;;;4.80;99.90;;;6.09;100.00;100471.22;5000021;28;55804;-60
2021/05/03 00:43:37;;;;;;;6.63;5.50;;;4.70;99.90;;;6.04;100.00;100476.09;4994814;28;57281;-59
2021/05/03 00:46:55;;;;;;;5.60;5.07;;;4.70;99.90;;;6.01;100.00;100479.00;4996793;28;57928;-59
2021/05/03 00:50:06;;;;;;;5.53;5.03;;;4.60;99.90;;;6.03;100.00;100472.59;4997374;28;59945;-57
2021/05/03 00:53:17;;;;;;;6.63;5.50;;;4.60;99.90;;;6.01;100.00;100473.69;5001344;28;52124;-60
2021/05/03 00:56:30;;;;;;;5.73;5.13;;;4.60;99.90;;;5.97;100.00;100477.53;4999280;28;71209;-60
2021/05/03 00:59:41;;;;;;;7.30;6.00;;;4.50;99.90;;;6.00;100.00;100482.63;4995492;28;56617;-60
2021/05/03 01:03:05;;;;;;;6.93;5.00;;;4.50;99.90;;;6.01;100.00;100485.16;4997758;28;54848;-59
2021/05/03 01:06:18;;;;;;;8.90;5.77;;;4.40;99.90;;;5.92;100.00;100480.59;4975450;28;63998;-57
2021/05/03 01:09:29;;;;;;;5.93;5.43;;;4.40;99.90;;;5.94;100.00;100483.94;4982523;28;71828;-58
2021/05/03 01:12:41;;;;;;;9.63;6.23;;;4.40;99.90;;;5.88;100.00;100483.56;4989481;28;67999;-59
2021/05/03 01:15:53;;;;;;;6.47;5.70;;;4.30;99.90;;;5.90;100.00;100492.31;4966852;28;69923;-57
2021/05/03 01:19:05;;;;;;;6.20;5.23;;;4.30;99.90;;;5.87;100.00;100481.88;4970129;28;75637;-57
2021/05/03 01:22:23;;;;;;;6.00;5.40;;;4.30;99.90;;;5.89;100.00;100490.59;4984014;28;75990;-58
2021/05/03 01:25:39;;;;;;;9.20;5.43;;;4.30;99.90;;;5.83;100.00;100486.59;4991412;28;67932;-59
2021/05/03 01:28:50;;;;;;;6.40;5.10;;;4.20;99.90;;;5.85;100.00;100489.13;4976949;28;70299;-59
2021/05/03 01:32:05;;;;;;;7.00;5.57;;;4.20;99.90;;;5.80;100.00;100489.50;4988293;28;69372;-58
2021/05/03 01:35:16;;;;;;;6.47;5.40;;;4.10;99.90;;;5.76;100.00;100498.69;4987458;28;71036;-60
2021/05/03 01:42:29;;;;;;;6.03;5.43;;;4.10;99.90;;;5.86;100.00;100499.63;4986321;28;70300;-58
2021/05/03 01:45:54;;;;;;;5.70;5.10;;;4.10;99.90;;;5.81;100.00;100501.78;4979269;28;89227;-55
2021/05/03 01:49:05;;;;;;;6.33;5.40;;;4.10;99.90;;;5.68;100.00;100507.25;4981001;28;82503;-59
2021/05/03 01:52:17;;;;;;;7.17;5.30;;;4.10;99.90;;;5.75;100.00;100502.28;5000695;28;62404;-60
2021/05/03 01:55:30;;;;;;;5.33;4.80;;;4.00;99.90;;;5.69;100.00;100516.88;4997045;28;64979;-59
2021/05/03 01:58:42;;;;;;;5.23;4.53;;;4.00;99.90;;;5.67;100.00;100515.34;4986946;28;67204;-58
2021/05/03 02:01:55;;;;;;;5.00;4.40;;;4.00;99.90;;;5.64;100.00;100524.38;4998072;28;63729;-59
2021/05/03 02:05:07;;;;;;;6.20;4.63;;;4.00;99.90;;;5.57;100.00;100525.81;5004411;28;48098;-58
2021/05/03 02:11:42;;;;;;;5.33;4.77;;;4.00;99.90;;;5.54;100.00;100534.06;5004103;28;56909;-60
2021/05/03 02:14:53;;;;;;;8.43;5.17;;;3.90;99.90;;;5.56;100.00;100532.13;4980020;28;59089;-59
2021/05/03 02:18:19;;;;;;;6.00;5.40;;;3.90;99.90;;;5.46;100.00;100530.28;4985211;28;58207;-60
2021/05/03 02:21:31;;;;;;;6.63;5.20;;;3.90;99.90;;;5.35;100.00;100528.47;4987942;28;41478;-58
2021/05/03 02:24:42;;;;;;;5.37;4.87;;;3.90;99.90;;;5.20;100.00;100530.50;4979546;28;58454;-58
2021/05/03 02:27:54;;;;;;;6.50;5.70;;;3.80;99.90;;;5.18;100.00;100528.94;4977552;28;58778;-60
2021/05/03 02:31:06;;;;;;;8.77;6.57;;;3.70;99.90;;;5.10;100.00;100532.16;4980970;28;50791;-58
2021/05/03 02:34:17;;;;;;;6.93;5.83;;;3.70;99.90;;;5.05;100.00;100532.53;4979281;28;53594;-59
2021/05/03 02:37:28;;;;;;;9.53;6.17;;;3.60;99.90;;;5.02;100.00;100532.75;4976512;28;57767;-59
2021/05/03 02:40:40;;;;;;;7.47;5.93;;;3.50;99.90;;;5.03;100.00;100533.59;4969425;28;60095;-58
2021/05/03 02:43:53;;;;;;;7.30;6.47;;;3.50;99.90;;;4.97;100.00;100537.56;4981600;28;56073;-57
2021/05/03 02:47:04;;;;;;;7.00;6.10;;;3.40;99.90;;;4.94;100.00;100534.31;4976941;28;61042;-60
2021/05/03 02:50:40;;;;;;;7.33;6.47;;;3.40;99.90;;;4.93;100.00;100544.06;4974787;28;59198;-60
2021/05/03 02:53:51;;;;;;;7.03;6.33;;;3.30;99.90;;;4.89;100.00;100533.81;4898010;28;61787;-60
2021/05/03 02:57:02;;;;;;;7.57;6.73;;;3.30;99.90;;;4.88;100.00;100548.03;4979330;28;52904;-60
2021/05/03 03:08:29;;;;;;;9.43;6.60;;;3.30;99.90;;;5.01;100.00;100560.25;4943640;28;67370;-59
2021/05/03 03:11:52;;;;;;;9.27;6.60;;;3.20;99.90;;;4.88;100.00;100570.06;4968836;28;56645;-60
2021/05/03 03:15:11;;;;;;;8.30;7.00;;;3.20;99.90;;;4.87;100.00;100572.84;4998468;28;53745;-59
2021/05/03 03:22:20;;;;;;;9.57;6.80;;;3.20;99.90;;;4.91;100.00;100574.31;4916438;28;54893;-59
2021/05/03 03:25:32;;;;;;;8.63;7.00;;;3.20;99.90;;;4.89;100.00;100577.06;4999080;28;64787;-60
2021/05/03 03:40:04;;;;;;;8.03;6.43;;;3.20;99.90;;;4.83;100.00;100596.06;4938066;28;56551;-59
2021/05/03 03:47:08;;;;;;;10.83;7.10;;;3.20;99.90;;;4.81;100.00;100605.13;4992596;28;50197;-59
2021/05/03 03:50:26;;;;;;;10.13;6.43;;;3.20;99.90;;;4.83;100.00;100605.84;4998281;28;57373;-59
2021/05/03 03:54:20;;;;;;;7.13;6.03;;;3.10;99.90;;;4.92;100.00;100607.81;4999667;28;56737;-59
2021/05/03 03:57:38;;;;;;;9.13;6.60;;;3.10;99.90;;;5.11;100.00;100613.44;4921133;28;57467;-59
2021/05/03 04:08:21;;;;;;;7.87;6.37;;;3.20;99.90;;;5.39;100.00;100618.34;4995894;28;56687;-58
2021/05/03 04:25:38;;;;;;;10.03;5.30;;;3.50;99.90;;;5.75;100.00;100633.25;4985000;28;58624;-59
2021/05/03 04:29:21;;;;;;;8.63;5.43;;;3.60;99.90;;;5.74;100.00;100631.56;4969508;28;54797;-60
2021/05/03 04:36:03;;;;;;;6.60;5.40;;;3.80;99.90;;;6.15;100.00;100631.97;4981035;28;57603;-61
2021/05/03 04:43:20;;;;;;;6.47;4.90;;;4.00;99.90;;;6.01;100.00;100641.88;4941388;28;66926;-59
2021/05/03 04:46:32;;;;;;;6.93;4.53;;;4.20;99.90;;;6.16;100.00;100644.28;4978832;28;64364;-59
2021/05/03 04:50:20;;;;;;;5.60;4.43;;;4.30;99.90;;;6.11;100.00;100642.84;4974032;28;62203;-58
2021/05/03 04:57:18;;;;;;;6.77;4.30;;;4.50;99.90;;;6.69;100.00;100651.44;4958681;28;56026;-60
2021/05/03 05:00:32;;;;;;;5.77;4.47;;;4.70;99.90;;;6.67;100.00;100653.41;4978382;28;59418;-59
2021/05/03 05:03:43;;;;;;;6.83;4.90;;;4.90;99.90;;;6.69;100.00;100664.75;4977670;28;60552;-59
2021/05/03 05:10:21;;;;;;;5.77;3.90;;;5.30;99.90;;;6.79;100.00;100657.75;4973765;28;60589;-61
2021/05/03 05:13:32;;;;;;;5.33;4.03;;;5.50;99.90;;;6.74;100.00;100657.25;4988510;28;57526;-60
2021/05/03 05:16:43;;;;;;;4.90;3.90;;;5.60;99.90;;;6.78;100.00;100660.53;4984063;28;53180;-60
2021/05/03 05:19:54;;;;;;;6.77;3.87;;;5.70;99.90;;;6.85;100.00;100651.91;4986401;28;50449;-60
2021/05/03 05:23:06;;;;;;;7.07;4.07;;;5.80;99.90;;;6.96;100.00;100664.31;4998155;28;49020;-60
2021/05/03 05:26:18;;;;;;;4.23;3.53;;;5.80;99.90;;;6.87;100.00;100659.75;4983476;28;51660;-59
2021/05/03 05:29:29;;;;;;;4.27;3.83;;;5.80;99.90;;;6.94;100.00;100665.41;4994583;28;47764;-59
2021/05/03 05:32:40;;;;;;;4.70;4.17;;;5.80;99.90;;;7.05;100.00;100670.69;4997309;28;49643;-61
2021/05/03 05:35:51;;;;;;;8.23;4.33;;;5.90;99.90;;;7.32;100.00;100662.25;5006935;28;44530;-60
2021/05/03 05:39:02;;;;;;;5.73;4.07;;;5.90;99.90;;;7.57;100.00;100670.72;5001159;28;47437;-59
2021/05/03 05:42:18;;;;;;;6.57;4.40;;;6.10;99.90;;;7.53;100.00;100663.97;5001562;28;48770;-60
2021/05/03 05:45:30;;;;;;;7.40;4.00;;;6.30;99.90;;;7.48;100.00;100662.66;4993109;28;52577;-58
2021/05/03 05:49:09;;;;;;;5.17;3.60;;;6.40;99.90;;;7.55;100.00;100663.81;4992491;28;49940;-60
2021/05/03 05:55:48;;;;;;;5.30;3.60;;;6.60;99.90;;;7.83;100.00;100670.31;4998836;28;46715;-60
2021/05/03 05:59:00;;;;;;;4.10;3.70;;;6.70;99.90;;;7.88;100.00;100674.28;5000426;28;46671;-59
2021/05/03 06:02:12;;;;;;;5.77;3.30;;;6.90;99.90;;;7.98;100.00;100676.16;5000076;28;50091;-59
2021/05/03 06:05:24;;;;;;;5.37;3.90;;;7.00;99.90;;;7.75;100.00;100672.78;4994825;28;53939;-60
2021/05/03 06:08:35;;;;;;;6.93;3.50;;;7.20;99.90;;;7.89;100.00;100678.63;4998428;28;44453;-61
2021/05/03 06:11:52;;;;;;;6.10;3.60;;;7.20;99.90;;;8.08;100.00;100677.88;4998087;28;48166;-58
2021/05/03 06:18:31;;;;;;;5.27;3.60;;;7.40;99.90;;;8.02;100.00;100680.25;4983410;28;60156;-59
2021/05/03 06:21:42;;;;;;;5.40;3.67;;;7.50;99.90;;;8.21;100.00;100686.50;4995448;28;48521;-60
2021/05/03 06:24:54;;;;;;;5.90;3.60;;;7.50;99.90;;;8.04;100.00;100686.25;5003108;28;51117;-60
2021/05/03 06:28:05;;;;;;;5.60;3.20;;;7.60;99.90;;;8.01;100.00;100683.88;4993158;28;44932;-60
2021/05/03 06:31:19;;;;;;;5.63;3.90;;;7.60;99.90;;;8.36;100.00;100683.53;5000532;28;59197;-60
2021/05/03 06:42:17;;;;;;;6.10;3.40;;;8.00;99.90;;;8.80;100.00;100695.59;4991464;28;39540;-60
2021/05/03 06:45:38;;;;;;;4.33;3.00;;;8.20;99.90;;;9.21;100.00;100694.53;4998744;28;43309;-58
2021/05/03 06:48:56;;;;;;;4.97;3.50;;;8.40;99.90;;;9.31;100.00;100690.88;4992414;28;53867;-60
2021/05/03 06:52:07;;;;;;;3.33;2.70;;;8.70;99.90;;;8.75;100.00;100690.69;5001030;28;43360;-60
2021/05/03 06:55:19;;;;;;;4.80;3.30;;;8.80;99.90;;;9.14;100.00;100699.59;4993934;28;46484;-60
2021/05/03 06:58:30;;;;;;;4.00;2.93;;;8.80;99.90;;;8.82;100.00;100698.97;5002409;28;46585;-61
2021/05/03 07:01:41;;;;;;;5.20;2.70;;;8.90;99.90;;;8.95;100.00;100689.72;5014023;28;35427;-61
2021/05/03 07:04:53;;;;;;;2.77;2.57;;;8.90;99.90;;;9.13;100.00;100699.75;5009994;28;37709;-59
2021/05/03 07:08:05;;;;;;;3.10;2.27;;;9.00;99.90;;;9.44;100.00;100693.28;5005078;28;41972;-59
2021/05/03 07:11:19;;;;;;;4.17;2.37;;;9.10;99.90;;;9.35;100.00;100683.44;5005268;28;43642;-60
2021/05/03 07:14:31;;;;;;;3.13;2.77;;;9.20;99.90;;;9.21;100.00;100682.03;4999356;28;45746;-61
2021/05/03 07:17:53;;;;;;;5.50;2.40;;;9.40;99.90;;;9.46;100.00;100691.31;4984997;28;43024;-61
2021/05/03 07:24:41;;;;;;;2.37;2.03;;;9.60;99.90;;;9.70;100.00;100691.72;4985269;28;44746;-61
2021/05/03 07:27:52;;;;;;;3.33;2.60;;;9.70;99.30;;;10.01;100.00;100694.19;5000670;28;40924;-59
2021/05/03 07:42:38;;;;;;;2.20;1.87;;;10.80;94.90;;;10.16;100.00;100700.75;4915846;28;44341;-60
2021/05/03 07:46:00;;;;;;;3.60;1.97;;;11.00;92.80;;;9.98;100.00;100689.13;4939946;28;48553;-60
2021/05/03 07:53:19;;;;;;;2.50;1.70;;;10.80;91.40;;;10.03;100.00;100695.72;4973331;28;47343;-59
2021/05/03 08:00:10;;;;;;;2.60;1.70;;;10.70;91.50;;;10.24;100.00;100708.94;5010127;28;37439;-58
2021/05/03 08:07:33;;;;;;;2.67;1.80;;;10.90;86.30;;;10.38;100.00;100723.69;4956875;28;36070;-60
2021/05/03 08:10:44;;;;;;;3.60;1.80;;;11.00;86.60;;;10.61;100.00;100719.63;5016570;28;34827;-59
2021/05/03 08:13:56;;;;;;;2.70;1.67;;;11.10;85.80;;;10.97;100.00;100714.38;5010481;28;45126;-60
2021/05/03 08:17:20;;;;;;;2.37;1.53;;;11.20;85.00;;;10.64;100.00;100716.63;5012911;28;35311;-60
2021/05/03 08:20:33;;;;;;;2.37;1.80;;;11.40;84.40;;;10.67;100.00;100721.69;4986274;28;40980;-60
2021/05/03 08:23:44;;;;;;;3.13;1.77;;;11.50;80.90;;;10.83;100.00;100714.88;5010138;28;48151;-60
2021/05/03 08:27:13;;;;;;;11.00;4.03;;;11.40;80.90;;;11.38;100.00;100716.47;5008592;28;45760;-60
2021/05/03 08:30:38;;;;;;;3.00;2.10;;;11.50;82.30;;;10.47;100.00;100720.13;4995340;28;50038;-60
2021/05/03 08:33:50;;;;;;;2.63;2.40;;;11.60;80.80;;;10.03;100.00;100724.28;4996766;28;46886;-60
2021/05/03 08:37:13;;;;;;;4.00;2.30;;;11.40;81.00;;;9.97;100.00;100725.72;5005836;28;44220;-58
2021/05/03 08:40:37;;;;;;;2.40;1.87;;;11.10;83.10;;;9.63;100.00;100733.34;4986307;28;43947;-58
2021/05/03 08:43:52;;;;;;;3.10;1.93;;;10.70;87.80;;;9.07;100.00;100745.66;5004002;28;54986;-60
2021/05/03 08:47:04;;;;;;;3.93;2.30;;;10.20;94.20;;;8.62;100.00;100730.94;4998076;28;47414;-60
2021/05/03 08:50:19;;;;;;;4.87;2.50;;;9.50;99.90;;;8.71;100.00;100744.44;5005957;28;49886;-61
2021/05/03 08:57:31;;;;;;;2.70;2.20;;;8.50;99.90;;;9.22;100.00;100730.94;4954713;28;53122;-59
2021/05/03 09:00:43;;;;;;;3.43;2.60;;;8.30;99.90;;;9.63;100.00;100735.19;5001237;28;52688;-60
2021/05/03 09:03:58;;;;;;;4.27;2.00;;;8.30;99.90;;;10.46;100.00;100730.97;4986072;28;52821;-60
2021/05/03 09:11:41;;;;;;;3.83;2.13;;;8.80;99.90;;;11.16;100.00;100712.41;4917091;28;55981;-59
2021/05/03 09:15:13;;;;;;;2.40;2.03;;;9.30;99.90;;;10.99;100.00;100713.22;4919348;28;57931;-59
2021/05/03 09:22:11;;;;;;;3.77;1.80;;;9.90;99.90;;;10.17;100.00;100707.78;4972637;28;51692;-56
2021/05/03 09:25:51;;;;;;;3.87;1.70;;;9.90;95.40;;;10.14;100.00;100715.28;4974878;28;57263;-59
2021/05/03 09:36:37;;;;;;;1.97;1.33;;;9.60;92.70;;;9.99;100.00;100715.72;4971684;28;54674;-58
2021/05/03 09:40:27;;;;;;;2.07;1.30;;;9.50;97.50;;;10.23;100.00;100712.59;4975278;28;59842;-58
2021/05/03 09:43:53;;;;;;;4.23;1.43;;;9.50;95.20;;;10.48;100.00;100708.44;4976484;28;52420;-57
2021/05/03 09:47:15;;;;;;;3.13;1.57;;;9.50;94.80;;;10.39;100.00;100711.97;4973950;28;59683;-59
2021/05/03 09:54:04;;;;;;;2.90;1.13;;;9.80;81.00;;;10.48;100.00;100708.44;4971629;28;58261;-58
2021/05/03 09:57:28;;;;;;;1.53;1.30;;;9.90;85.30;;;10.32;100.00;100703.69;4972842;28;56705;-60
2021/05/03 10:00:46;;;;;;;1.50;1.40;;;9.90;81.60;;;10.56;100.00;100705.00;4973942;28;56245;-60
2021/05/03 10:04:14;;;;;;;1.87;1.30;;;9.90;82.10;;;10.53;100.00;100703.47;4976763;28;55967;-60
2021/05/03 10:07:27;;;;;;;1.37;1.27;;;10.00;81.70;;;10.58;100.00;100708.38;4979764;28;52928;-60
2021/05/03 10:10:45;;;;;;;2.03;1.40;;;10.00;78.80;;;10.58;100.00;100700.34;4977488;28;51771;-59
2021/05/03 10:13:57;;;;;;;2.80;1.50;;;10.10;78.40;;;10.46;100.00;100706.88;5001031;28;46093;-60
2021/05/03 10:20:28;;;;;;;1.60;1.20;;;10.10;79.20;;;10.60;100.00;100712.59;4998526;28;52057;-59
2021/05/03 10:23:40;;;;;;;2.77;1.13;;;10.20;77.90;;;10.99;100.00;100712.38;4993747;28;43217;-59
2021/05/03 10:26:53;;;;;;;2.57;1.30;;;10.20;78.50;;;10.99;100.00;100699.00;4995312;28;46347;-60
2021/05/03 10:30:11;;;;;;;1.73;1.10;;;10.50;75.80;;;11.53;100.00;100682.78;4999131;28;53273;-59
2021/05/03 10:33:28;;;;;;;2.20;1.30;;;10.90;75.80;;;11.22;100.00;100678.81;4997032;28;52539;-58
2021/05/03 10:36:57;;;;;;;1.53;0.97;;;11.20;71.00;;;11.06;100.00;100695.56;4961591;28;60989;-60
2021/05/03 10:44:44;;;;;;;2.07;1.33;;;11.30;68.60;;;11.23;100.00;100691.22;4838601;29;54395;-58
2021/05/03 10:48:10;;;;;;;2.13;1.50;;;11.40;67.60;;;12.32;100.00;100689.06;4931796;28;45017;-58
2021/05/03 10:55:10;;;;;;;2.00;1.23;;;12.20;68.30;;;12.65;100.00;100681.97;4968905;28;43210;-60
2021/05/03 10:58:28;;;;;;;1.93;1.30;;;12.90;66.40;;;12.36;100.00;100683.22;4988270;28;28716;-60
2021/05/03 11:01:40;;;;;;;1.60;1.10;;;13.20;62.10;;;12.12;100.00;100681.22;5012373;28;31979;-60
2021/05/03 11:04:58;;;;;;;2.37;1.43;;;13.20;57.10;;;12.00;100.00;100684.31;5012459;28;36012;-59
2021/05/03 11:08:33;;;;;;;1.57;1.47;;;13.10;54.90;;;12.41;100.00;100670.16;5004881;28;48207;-60
2021/05/03 11:12:01;;;;;;;1.93;1.10;;;13.10;56.60;;;12.29;100.00;100678.63;5011664;28;39786;-61
2021/05/03 11:19:36;;;;;;;1.23;1.13;;;12.90;55.80;;;12.11;100.00;100684.09;5014682;28;36764;-58
2021/05/03 11:23:15;;;;;;;2.70;1.20;;;12.80;56.30;;;11.76;100.00;100685.84;4946984;28;35216;-60
2021/05/03 11:27:23;;;;;;;1.50;1.40;;;12.60;56.80;;;11.91;100.00;100675.38;4958438;28;30772;-60
2021/05/03 11:30:41;;;;;;;4.03;1.70;;;12.50;57.40;;;12.26;100.00;100665.53;4941352;28;27684;-60
2021/05/03 11:34:03;;;;;;;2.50;1.90;;;12.50;57.00;;;12.46;100.00;100661.63;4956047;28;24199;-60
2021/05/03 11:37:17;;;;;;;2.10;1.57;;;12.60;56.00;;;12.67;100.00;100666.56;5015511;28;30320;-60
2021/05/03 11:40:39;;;;;;;2.43;1.63;;;12.70;56.90;;;12.20;100.00;100670.56;5007739;28;27320;-58
2021/05/03 11:47:34;;;;;;;1.90;1.53;;;12.90;55.00;;;12.90;100.00;100662.25;5012760;28;24480;-58
2021/05/03 11:50:47;;;;;;;2.77;1.77;;;13.00;54.70;;;13.28;100.00;100667.06;5017367;28;24944;-61
2021/05/03 11:54:04;;;;;;;3.10;1.87;;;13.30;55.40;;;13.29;100.00;100666.06;5016868;28;28075;-60
2021/05/03 11:57:23;;;;;;;2.37;2.13;;;13.90;54.20;;;13.91;100.00;100654.78;5018221;28;35251;-60
2021/05/03 12:00:42;;;;;;;2.17;1.97;;;14.40;53.90;;;13.51;100.00;100661.03;5018342;28;27675;-59
2021/05/03 12:07:21;;;;;;;2.33;2.13;;;15.10;51.30;;;13.62;100.00;100644.56;5016429;28;20636;-59
2021/05/03 12:10:42;;;;;;;2.30;1.60;;;15.50;50.20;;;13.30;100.00;100657.00;5019889;28;21037;-58
2021/05/03 12:13:57;;;;;;;4.53;1.92;;;15.40;49.30;;;13.19;100.00;100649.28;5019848;28;24483;-59
2021/05/03 12:21:12;;;;;;;3.17;1.90;;;14.90;50.50;;;12.71;100.00;100649.13;4989270;28;31391;-59
2021/05/03 12:24:30;;;;;;;2.70;2.37;;;14.60;50.60;;;13.10;100.00;100647.56;5018083;28;25121;-59
2021/05/03 12:27:47;;;;;;;2.60;1.80;;;14.30;50.50;;;13.25;100.00;100629.78;5010981;28;23626;-60
2021/05/03 12:31:04;;;;;;;2.70;1.87;;;14.30;50.50;;;13.17;100.00;100637.84;5020174;28;30790;-59
2021/05/03 12:34:25;;;;;;;2.33;2.13;;;14.20;49.40;;;12.95;100.00;100646.50;5012244;28;35853;-59
2021/05/03 12:38:00;;;;;;;2.07;1.93;;;14.00;49.90;;;12.83;100.00;100626.34;4997775;28;34377;-60
2021/05/03 12:41:29;;;;;;;1.97;1.87;;;13.80;50.40;;;13.40;100.00;100631.81;5006489;28;34141;-60
2021/05/03 12:44:48;;;;;;;2.83;1.90;;;13.70;51.50;;;13.26;100.00;100631.47;5017552;28;40804;-60
2021/05/03 12:52:29;;;;;;;1.83;1.70;;;13.70;51.00;;;13.06;100.00;100627.38;4994585;28;27852;-60
2021/05/03 13:28:25;;;;;;;2.83;1.60;;;13.50;51.30;;;13.28;100.00;100616.00;5021448;28;24199;-59
2021/05/03 13:31:36;;;;;;;2.83;1.33;;;13.50;52.00;;;13.38;100.00;100610.47;5008158;28;43168;-59
2021/05/03 13:34:47;;;;;;;1.97;1.60;;;13.50;52.70;;;13.70;100.00;100617.69;5016314;28;41228;-59
2021/05/03 13:37:59;;;;;;;2.03;1.60;;;13.60;53.20;;;13.96;100.00;100607.53;5021391;28;25640;-58
2021/05/03 13:41:23;;;;;;;2.20;1.83;;;13.70;53.80;;;13.41;100.00;100598.53;5021591;28;22800;-59
2021/05/03 13:51:41;;;;;;;2.53;1.90;;;13.70;53.50;;;13.32;100.00;100599.56;5021424;28;23719;-60
2021/05/03 13:54:53;;;;;;;4.67;1.90;;;13.70;53.60;;;13.64;100.00;100596.84;5019280;28;20723;-59
2021/05/03 13:58:05;;;;;;;2.50;1.80;;;13.70;53.80;;;14.35;100.00;100593.25;5024111;28;20224;-58
2021/05/03 14:01:16;;;;;;;2.20;2.00;;;13.90;54.90;;;14.32;100.00;100588.25;5020438;28;28750;-58
2021/05/03 14:04:27;;;;;;;2.77;1.73;;;14.20;54.20;;;14.83;100.00;100591.38;5020941;28;27768;-58
2021/05/03 14:07:39;;;;;;;2.20;2.00;;;14.60;54.40;;;14.16;100.00;100588.28;5019517;28;25082;-59
2021/05/03 14:10:50;;;;;;;2.30;1.67;;;14.90;52.80;;;14.28;100.00;100587.75;5021358;28;22012;-58
2021/05/03 14:14:18;;;;;;;2.33;1.60;;;15.00;53.10;;;14.11;100.00;100591.50;5020537;28;23804;-58
2021/05/03 14:17:29;;;;;;;4.53;2.00;;;15.10;52.90;;;13.95;100.00;100583.50;5008418;28;27997;-58
2021/05/03 14:20:41;;;;;;;1.70;1.55;;;15.00;52.60;;;13.83;100.00;100579.50;5019376;28;27780;-60
2021/05/03 14:23:52;;;;;;;1.73;1.50;;;14.90;52.80;;;13.92;100.00;100578.47;5020707;28;26674;-59
2021/05/03 14:27:03;;;;;;;1.97;1.87;;;14.90;53.00;;;13.66;100.00;100570.63;5015014;28;24799;-59
2021/05/03 14:30:20;;;;;;;1.70;1.60;;;14.80;52.60;;;13.69;100.00;100578.34;5010485;28;36563;-58
2021/05/03 14:33:34;;;;;;;2.47;1.87;;;14.60;51.70;;;13.83;100.00;100560.69;5015203;28;33579;-60
2021/05/03 14:36:45;;;;;;;2.28;1.73;;;14.40;50.60;;;14.25;100.00;100568.41;5019753;28;27380;-58
2021/05/03 14:39:57;;;;;;;2.65;1.98;;;14.30;51.50;;;14.51;100.00;100570.84;5022261;28;21855;-59
2021/05/03 14:46:45;;;;;;;2.07;1.83;;;14.70;50.90;;;14.81;100.00;100547.59;5008994;28;20442;-59
2021/05/03 14:50:04;;;;;;;2.30;1.90;;;14.90;50.60;;;14.69;100.00;100545.31;5023291;28;20309;-59
2021/05/03 14:56:41;;;;;;;2.38;1.70;;;15.30;50.90;;;15.03;100.00;100528.72;4994295;28;21064;-60
2021/05/03 14:59:52;;;;;;;2.53;2.30;;;15.60;50.30;;;14.69;100.00;100533.72;5018633;28;28680;-60
2021/05/03 15:03:26;;;;;;;2.00;1.80;;;15.60;49.40;;;14.71;100.00;100545.97;5012093;28;29149;-59
2021/05/03 15:06:38;;;;;;;2.47;2.28;;;15.50;50.20;;;14.12;100.00;100542.06;5015531;28;26472;-60
2021/05/03 15:13:49;;;;;;;2.23;2.03;;;14.90;51.00;;;15.08;100.00;100514.72;4909443;28;29163;-59
2021/05/03 15:23:35;;;;;;;2.17;1.95;;;15.00;50.60;;;15.19;100.00;100503.50;4999577;28;28489;-57
2021/05/03 15:26:49;;;;;;;3.17;2.65;;;15.00;50.40;;;14.85;100.00;100503.09;4977142;28;33835;-58
2021/05/03 15:37:05;;;;;;;4.27;2.63;;;14.90;50.30;;;14.93;100.00;100498.50;4991798;28;29318;-58
2021/05/03 15:40:29;;;;;;;2.67;2.38;;;14.70;50.60;;;14.55;100.00;100489.53;4999261;28;22626;-58
2021/05/03 15:43:42;;;;;;;2.97;2.50;;;14.60;50.30;;;14.75;100.00;100487.19;4999410;28;22615;-59
2021/05/03 15:46:53;;;;;;;2.80;2.47;;;14.40;51.30;;;14.53;100.00;100485.34;4992474;28;38228;-58
2021/05/03 15:50:04;;;;;;;3.43;2.60;;;14.20;52.00;;;14.77;100.00;100484.31;4993111;28;39723;-59
2021/05/03 15:53:17;;;;;;;2.70;2.50;;;14.10;52.80;;;14.73;100.00;100490.06;4985327;28;42593;-59
2021/05/03 15:56:30;;;;;;;2.73;2.53;;;14.00;53.30;;;15.08;100.00;100480.50;4976226;28;33571;-58
2021/05/03 15:59:41;;;;;;;2.63;2.43;;;13.90;53.40;;;15.22;100.00;100469.94;4983079;28;43827;-58
2021/05/03 16:02:53;;;;;;;2.40;2.20;;;13.90;54.10;;;15.28;100.00;100470.03;4985216;28;45296;-58
2021/05/03 16:06:16;;;;;;;3.17;2.87;;;13.90;54.30;;;15.01;100.00;100479.56;4991252;28;30923;-58
2021/05/03 16:09:29;;;;;;;2.93;2.13;;;13.90;53.50;;;15.04;100.00;100481.06;4996306;28;31406;-57
2021/05/03 16:12:40;;;;;;;2.97;2.37;;;13.80;54.00;;;15.27;100.00;100470.22;4996283;28;46433;-59
2021/05/03 16:15:51;;;;;;;2.70;2.50;;;13.80;54.60;;;14.98;100.00;100466.44;5017269;28;29850;-59
2021/05/03 16:19:02;;;;;;;2.73;2.30;;;13.80;54.90;;;14.62;100.00;100473.47;5010216;28;30256;-59
2021/05/03 16:22:14;;;;;;;2.80;2.60;;;13.80;54.60;;;14.41;100.00;100462.53;5002137;28;29648;-59
2021/05/03 16:25:30;;;;;;;3.43;2.50;;;13.70;54.40;;;14.24;100.00;100464.44;5011231;28;33150;-59
2021/05/03 16:28:41;;;;;;;4.00;2.47;;;13.60;54.60;;;14.20;100.00;100452.38;5005989;28;46158;-59
2021/05/03 16:31:52;;;;;;;2.70;2.50;;;13.40;54.40;;;14.23;100.00;100462.78;5013635;28;36285;-59
2021/05/03 16:35:04;;;;;;;2.47;2.27;;;13.20;54.90;;;14.11;100.00;100450.75;5003423;28;48005;-57
2021/05/03 16:38:15;;;;;;;3.57;2.53;;;13.20;55.30;;;14.10;100.00;100449.06;4994586;28;51767;-58
2021/05/03 16:41:39;;;;;;;2.60;2.40;;;13.10;55.30;;;14.13;100.00;100451.41;5018041;28;32491;-58
2021/05/03 16:44:50;;;;;;;3.90;2.43;;;13.00;55.70;;;14.09;100.00;100448.25;5009264;28;44354;-58
2021/05/03 16:48:02;;;;;;;3.47;2.43;;;12.90;56.20;;;14.29;100.00;100444.06;5002862;28;32022;-58
2021/05/03 16:51:22;;;;;;;2.63;2.43;;;12.90;56.80;;;14.62;100.00;100433.09;5015559;28;26056;-59
2021/05/03 16:54:33;;;;;;;2.87;2.43;;;12.90;56.80;;;14.72;100.00;100430.97;5015896;28;30369;-59
2021/05/03 16:57:46;;;;;;;4.63;2.40;;;12.90;57.70;;;14.80;100.00;100432.78;5014029;28;29991;-59
2021/05/03 17:00:57;;;;;;;3.33;2.77;;;12.90;57.10;;;14.65;100.00;100427.34;5019698;28;24342;-59
2021/05/03 17:04:09;;;;;;;3.07;2.87;;;13.00;56.70;;;14.73;100.00;100417.34;5014710;28;24855;-58
2021/05/03 17:07:20;;;;;;;2.77;2.57;;;13.00;57.10;;;14.51;100.00;100417.38;5021337;28;24351;-58
2021/05/03 17:10:32;;;;;;;2.90;2.60;;;12.90;57.20;;;14.50;100.00;100418.38;5020760;28;20584;-57
2021/05/03 17:13:44;;;;;;;4.63;2.97;;;12.90;57.30;;;14.40;100.00;100415.94;5009386;28;22249;-58
2021/05/03 17:16:55;;;;;;;3.03;2.77;;;12.80;57.10;;;14.41;100.00;100412.22;5003094;28;27676;-59
2021/05/03 17:20:28;;;;;;;2.60;2.40;;;12.80;57.10;;;14.18;100.00;100408.66;5012570;28;29280;-57
2021/05/03 17:23:52;;;;;;;3.90;2.90;;;12.70;57.60;;;14.22;100.00;100412.66;4984023;28;28633;-60
2021/05/03 17:27:03;;;;;;;4.20;3.80;;;12.60;57.90;;;14.23;100.00;100404.41;5011426;28;35310;-58